Time;durP1;ratioP1;P1;durP2;ratioP2;P2;SDS_P1;SDS_P2;PMS_P1;PMS_P2;Temp;Humidity;BMP_temperature;BMP_pressure;BME280_temperature;BME280_humidity;BME280_pressure;Samples;Min_cycle;Max_cycle;Signal;HPM_P1;HPM_P2
2022/06/09 00:02:00;;;;;;;8.07;3.97;;;16.20;84.70;;;;;;5048806;28;20876;-69
2022/06/09 00:04:34;;;;;;;8.05;4.15;;;16.20;84.70;;;;;;5045374;28;20025;-69
2022/06/09 00:07:08;;;;;;;8.63;4.85;;;16.20;84.80;;;;;;5050376;28;20024;-69
2022/06/09 00:09:45;;;;;;;8.15;4.35;;;16.10;84.80;;;;;;5045946;28;20053;-69
2022/06/09 00:12:11;;;;;;;7.05;3.97;;;16.10;84.90;;;;;;5047416;28;20039;-69
2022/06/09 00:14:37;;;;;;;8.88;3.75;;;16.00;84.90;;;;;;5048015;28;20025;-68
2022/06/09 00:17:04;;;;;;;6.68;3.33;;;16.00;85.00;;;;;;5048198;28;20124;-68
2022/06/09 00:19:33;;;;;;;8.68;3.58;;;16.00;85.00;;;;;;5046541;28;20086;-68
2022/06/09 00:21:59;;;;;;;8.95;4.38;;;16.00;85.10;;;;;;5043622;28;20029;-68
2022/06/09 00:24:24;;;;;;;9.18;4.00;;;16.00;85.20;;;;;;5045043;28;20087;-68
2022/06/09 00:26:50;;;;;;;8.32;3.88;;;15.90;85.10;;;;;;5047265;28;20082;-68
2022/06/09 00:29:16;;;;;;;8.27;3.78;;;15.90;85.10;;;;;;5045180;28;20017;-68
2022/06/09 00:31:41;;;;;;;7.88;4.18;;;15.90;85.20;;;;;;5046841;28;20036;-69
2022/06/09 00:34:07;;;;;;;8.43;4.13;;;15.90;85.30;;;;;;5048538;28;20096;-68
2022/06/09 00:36:33;;;;;;;8.27;4.35;;;15.80;85.30;;;;;;5047599;28;20048;-69
2022/06/09 00:38:58;;;;;;;7.72;4.30;;;15.80;85.30;;;;;;5045901;28;20438;-69
2022/06/09 00:41:25;;;;;;;5.30;3.60;;;15.70;85.50;;;;;;5072817;28;20552;-69
2022/06/09 00:43:51;;;;;;;5.68;3.55;;;15.70;85.50;;;;;;5049058;28;20033;-67
2022/06/09 00:46:25;;;;;;;7.47;3.85;;;15.70;85.50;;;;;;5046363;28;20109;-67
2022/06/09 00:49:01;;;;;;;7.38;3.50;;;15.70;85.50;;;;;;5047001;28;20025;-67
2022/06/09 00:51:41;;;;;;;7.03;3.35;;;15.70;85.50;;;;;;5048096;28;20021;-67
2022/06/09 00:54:24;;;;;;;8.73;3.30;;;15.70;85.50;;;;;;5044108;28;20025;-67
2022/06/09 00:57:17;;;;;;;7.47;3.47;;;15.70;85.50;;;;;;5055083;28;20051;-68
2022/06/09 00:59:45;;;;;;;7.35;3.30;;;15.70;85.60;;;;;;5043547;28;20037;-70
2022/06/09 01:02:15;;;;;;;6.90;3.53;;;15.70;85.60;;;;;;5048099;28;20116;-70
2022/06/09 01:04:41;;;;;;;6.95;3.28;;;15.70;85.60;;;;;;5046912;28;20048;-69
2022/06/09 01:07:12;;;;;;;5.07;2.30;;;15.70;85.70;;;;;;5046530;28;20395;-69
2022/06/09 01:09:38;;;;;;;4.03;2.70;;;15.70;85.60;;;;;;5046762;28;20021;-69
2022/06/09 01:12:22;;;;;;;7.38;3.42;;;15.70;85.60;;;;;;5046395;28;20033;-69
2022/06/09 01:14:49;;;;;;;6.35;3.10;;;15.60;85.70;;;;;;5046096;28;20108;-69
2022/06/09 01:17:31;;;;;;;5.75;2.90;;;15.70;85.90;;;;;;5047301;28;20045;-68
2022/06/09 01:20:02;;;;;;;;;;;15.70;85.90;;;;;;5045040;28;20017;-68
2022/06/09 01:23:05;;;;;;;6.95;2.70;;;15.60;85.60;;;;;;5048523;28;20374;-68
2022/06/09 01:25:45;;;;;;;5.95;2.80;;;15.60;85.90;;;;;;5042812;28;20033;-70
2022/06/09 01:28:40;;;;;;;5.95;2.90;;;15.60;85.90;;;;;;5046820;28;20021;-69
2022/06/09 01:31:24;;;;;;;8.45;3.10;;;15.60;85.90;;;;;;5049607;28;20025;-69
2022/06/09 01:34:22;;;;;;;5.88;2.53;;;15.60;85.90;;;;;;5048605;28;20032;-69
2022/06/09 01:37:01;;;;;;;6.70;2.47;;;15.60;86.00;;;;;;5047739;28;20067;-70
2022/06/09 01:39:30;;;;;;;6.80;2.75;;;15.60;86.00;;;;;;5049616;28;20025;-70
2022/06/09 01:41:55;;;;;;;6.65;2.80;;;15.50;86.00;;;;;;5051434;28;20127;-70
2022/06/09 01:44:21;;;;;;;7.78;2.97;;;15.50;86.10;;;;;;5054834;28;20111;-70
2022/06/09 01:46:47;;;;;;;6.18;2.38;;;15.50;86.20;;;;;;5049924;28;20082;-69
2022/06/09 01:49:27;;;;;;;9.82;2.70;;;15.50;86.30;;;;;;5050859;28;20067;-69
2022/06/09 01:51:55;;;;;;;6.75;2.67;;;15.50;86.30;;;;;;5050718;28;20068;-69
2022/06/09 01:54:26;;;;;;;6.35;2.67;;;15.50;86.20;;;;;;5045002;28;20100;-69
2022/06/09 01:57:12;;;;;;;5.65;2.53;;;15.50;86.30;;;;;;5053363;28;20036;-69
2022/06/09 01:59:52;;;;;;;5.93;2.83;;;15.50;86.30;;;;;;5052092;28;20040;-69
2022/06/09 02:02:30;;;;;;;6.55;2.70;;;15.50;86.30;;;;;;5051890;28;20406;-69
2022/06/09 02:05:10;;;;;;;8.52;3.10;;;15.50;86.20;;;;;;5048341;28;20021;-69
2022/06/09 02:07:39;;;;;;;6.47;2.70;;;15.40;86.20;;;;;;5052597;28;20154;-67
2022/06/09 02:10:29;;;;;;;5.57;2.40;;;15.40;86.30;;;;;;5048338;28;20082;-68
2022/06/09 02:12:59;;;;;;;4.40;2.38;;;15.40;86.40;;;;;;5052338;28;20120;-69
2022/06/09 02:15:32;;;;;;;6.25;2.85;;;15.40;86.40;;;;;;5047762;28;20025;-69
2022/06/09 02:18:03;;;;;;;7.00;3.30;;;15.40;86.40;;;;;;5066506;28;20021;-70
2022/06/09 02:20:29;;;;;;;7.87;2.80;;;15.40;86.50;;;;;;5052694;28;20116;-68
2022/06/09 02:22:55;;;;;;;6.43;2.95;;;15.40;86.30;;;;;;5051170;28;20295;-69
2022/06/09 02:25:20;;;;;;;6.47;3.00;;;15.40;86.30;;;;;;5052026;28;20550;-68
2022/06/09 02:27:46;;;;;;;6.57;3.22;;;15.40;86.20;;;;;;5049462;28;20025;-70
2022/06/09 02:30:12;;;;;;;5.80;3.00;;;15.40;86.30;;;;;;5049853;28;20025;-70
2022/06/09 02:32:37;;;;;;;6.57;2.80;;;15.40;86.30;;;;;;5052532;28;20042;-69
2022/06/09 02:35:04;;;;;;;5.80;2.78;;;15.40;86.20;;;;;;5052535;28;20115;-69
2022/06/09 02:37:29;;;;;;;7.03;2.97;;;15.40;86.20;;;;;;5051336;28;20037;-69
2022/06/09 02:39:55;;;;;;;5.20;3.00;;;15.40;86.10;;;;;;5054176;28;20036;-69
2022/06/09 02:42:20;;;;;;;5.22;2.67;;;15.40;86.10;;;;;;5057477;28;20036;-69
2022/06/09 02:44:46;;;;;;;7.25;3.22;;;15.30;86.10;;;;;;5051408;28;20025;-68
2022/06/09 02:47:11;;;;;;;8.02;3.35;;;15.30;86.10;;;;;;5050383;28;20021;-68
2022/06/09 02:49:39;;;;;;;8.18;3.60;;;15.20;86.20;;;;;;5053572;28;20470;-68
2022/06/09 02:52:04;;;;;;;6.82;2.80;;;15.20;86.30;;;;;;5059339;28;20029;-68
2022/06/09 02:54:30;;;;;;;7.47;3.15;;;15.10;86.30;;;;;;5049237;28;20025;-68
2022/06/09 02:56:56;;;;;;;7.43;3.15;;;15.20;86.40;;;;;;5050939;28;20518;-67
2022/06/09 02:59:21;;;;;;;7.53;3.58;;;15.20;86.40;;;;;;5047910;28;20525;-68
2022/06/09 03:01:47;;;;;;;5.15;3.00;;;15.10;86.40;;;;;;5054785;28;20501;-68
2022/06/09 03:04:12;;;;;;;7.50;3.05;;;15.10;86.50;;;;;;5051107;28;20029;-68
2022/06/09 03:06:38;;;;;;;6.55;2.85;;;15.10;86.50;;;;;;5050936;28;20576;-68
2022/06/09 03:09:04;;;;;;;7.35;2.83;;;15.10;86.50;;;;;;5049905;28;20396;-68
2022/06/09 03:11:29;;;;;;;7.85;3.08;;;15.10;86.50;;;;;;5055787;28;20025;-68
2022/06/09 03:13:55;;;;;;;9.10;3.78;;;15.10;86.60;;;;;;5048950;28;20108;-68
2022/06/09 03:16:20;;;;;;;10.05;4.00;;;15.00;86.60;;;;;;5052918;28;20602;-66
2022/06/09 03:18:46;;;;;;;7.50;3.40;;;15.00;86.70;;;;;;5058061;28;20033;-67
2022/06/09 03:21:13;;;;;;;8.82;3.50;;;15.00;86.80;;;;;;5051386;28;20139;-67
2022/06/09 03:23:39;;;;;;;6.13;3.00;;;15.00;86.80;;;;;;5042445;28;20060;-68
2022/06/09 03:26:06;;;;;;;8.27;3.08;;;15.00;86.80;;;;;;5059161;28;20455;-69
2022/06/09 03:28:32;;;;;;;6.82;2.90;;;15.00;86.70;;;;;;5052290;28;20021;-70
2022/06/09 03:30:59;;;;;;;9.55;3.75;;;15.00;86.70;;;;;;5054429;28;20048;-71
2022/06/09 03:33:24;;;;;;;5.28;3.13;;;15.00;86.60;;;;;;5048900;28;20029;-70
2022/06/09 03:35:50;;;;;;;8.95;3.50;;;15.00;86.50;;;;;;5049636;28;20104;-70
2022/06/09 03:38:16;;;;;;;5.95;2.75;;;15.00;86.60;;;;;;5053891;28;20036;-70
2022/06/09 03:40:42;;;;;;;8.43;3.03;;;15.10;86.60;;;;;;5050509;28;20402;-68
2022/06/09 03:43:08;;;;;;;6.88;2.63;;;15.00;86.50;;;;;;5049811;28;20448;-68
2022/06/09 03:45:34;;;;;;;5.78;2.40;;;15.00;86.60;;;;;;5046340;28;20057;-67
2022/06/09 03:48:00;;;;;;;7.07;2.75;;;15.10;86.70;;;;;;5056102;28;20033;-68
2022/06/09 03:50:28;;;;;;;8.70;2.90;;;15.10;86.70;;;;;;5054144;28;20021;-69
2022/06/09 03:52:54;;;;;;;9.05;3.40;;;15.10;86.60;;;;;;5042645;28;20040;-68
2022/06/09 03:55:21;;;;;;;10.45;3.60;;;15.10;86.60;;;;;;5052230;28;20029;-69
2022/06/09 03:57:46;;;;;;;10.75;3.17;;;15.20;86.60;;;;;;5054399;28;20036;-69
2022/06/09 04:00:19;;;;;;;9.40;3.05;;;15.20;86.60;;;;;;5049736;28;20146;-68
2022/06/09 04:02:44;;;;;;;5.63;2.50;;;15.30;86.50;;;;;;5051292;28;20033;-68
2022/06/09 04:05:10;;;;;;;8.35;2.78;;;15.30;86.30;;;;;;5051928;28;20017;-68
2022/06/09 04:07:36;;;;;;;6.35;2.42;;;15.40;86.30;;;;;;5051132;28;20040;-68
2022/06/09 04:10:03;;;;;;;4.68;2.35;;;15.40;86.20;;;;;;5056944;28;20036;-69
2022/06/09 04:12:28;;;;;;;10.07;3.90;;;15.40;86.20;;;;;;5050653;28;20029;-70
2022/06/09 04:14:54;;;;;;;6.53;2.50;;;15.50;86.20;;;;;;5053306;28;20027;-68
2022/06/09 04:17:20;;;;;;;6.53;2.47;;;15.50;86.30;;;;;;5048737;28;20146;-68
2022/06/09 04:19:45;;;;;;;5.65;2.70;;;15.50;86.20;;;;;;5056580;28;20064;-68
2022/06/09 04:22:11;;;;;;;5.55;2.55;;;15.60;86.00;;;;;;5066395;28;20066;-68
2022/06/09 04:24:36;;;;;;;6.63;2.67;;;15.60;86.00;;;;;;5055076;28;20112;-68
2022/06/09 04:27:03;;;;;;;6.55;2.60;;;15.70;85.90;;;;;;5047928;28;20032;-69
2022/06/09 04:29:29;;;;;;;4.47;2.50;;;15.70;86.50;;;;;;5046919;28;20025;-69
2022/06/09 04:31:54;;;;;;;6.60;2.80;;;15.70;85.80;;;;;;5047042;28;20082;-69
2022/06/09 04:34:20;;;;;;;5.97;2.78;;;15.80;85.80;;;;;;5049014;28;20029;-69
2022/06/09 04:36:45;;;;;;;6.13;2.53;;;15.80;85.70;;;;;;5043756;28;20041;-69
2022/06/09 04:39:11;;;;;;;6.82;2.72;;;15.80;85.60;;;;;;5045929;28;20017;-69
2022/06/09 04:41:37;;;;;;;5.53;2.55;;;15.80;85.60;;;;;;5059572;28;20483;-68
2022/06/09 04:44:04;;;;;;;6.55;2.50;;;15.80;85.50;;;;;;5047202;28;20104;-68
2022/06/09 04:46:30;;;;;;;7.18;2.67;;;15.90;85.50;;;;;;5051209;28;20043;-68
2022/06/09 04:48:56;;;;;;;5.38;1.90;;;15.90;85.50;;;;;;5047950;28;20029;-68
2022/06/09 04:51:24;;;;;;;4.53;2.10;;;16.00;85.40;;;;;;5058404;28;20033;-68
2022/06/09 04:53:50;;;;;;;4.43;2.00;;;16.40;85.00;;;;;;5070818;28;20392;-68
2022/06/09 04:56:18;;;;;;;5.25;2.13;;;16.80;83.80;;;;;;5051817;28;20032;-68
2022/06/09 04:58:43;;;;;;;5.78;2.10;;;17.10;82.60;;;;;;5052300;28;20432;-68
2022/06/09 05:01:29;;;;;;;5.57;2.10;;;17.10;81.80;;;;;;5045642;28;20021;-69
2022/06/09 05:03:56;;;;;;;4.80;2.47;;;16.90;82.10;;;;;;5045762;28;20039;-69
2022/06/09 05:06:23;;;;;;;5.55;2.17;;;16.70;82.50;;;;;;5055939;28;20056;-69
2022/06/09 05:08:50;;;;;;;4.55;1.80;;;16.60;83.00;;;;;;5050087;28;20025;-68
2022/06/09 05:11:16;;;;;;;4.57;1.80;;;17.30;82.20;;;;;;5041834;28;20384;-68
2022/06/09 05:13:43;;;;;;;6.15;2.10;;;18.00;80.20;;;;;;5043241;28;20079;-68
2022/06/09 05:16:09;;;;;;;5.85;1.77;;;18.40;78.40;;;;;;5046849;28;20029;-69
2022/06/09 05:18:36;;;;;;;6.28;2.55;;;18.60;77.40;;;;;;5048315;28;20187;-68
2022/06/09 05:21:02;;;;;;;5.15;2.10;;;18.60;76.80;;;;;;5047778;28;20060;-68
2022/06/09 05:23:28;;;;;;;4.35;1.88;;;18.90;76.30;;;;;;5050090;28;20065;-67
2022/06/09 05:25:56;;;;;;;5.32;2.28;;;19.30;75.40;;;;;;5049457;28;20044;-68
2022/06/09 05:28:23;;;;;;;5.50;2.20;;;19.70;74.90;;;;;;5049995;28;20021;-68
2022/06/09 05:30:49;;;;;;;6.15;2.20;;;19.90;73.40;;;;;;5048323;28;20044;-68
2022/06/09 05:33:15;;;;;;;6.57;2.03;;;20.20;73.10;;;;;;5051190;28;20720;-69
2022/06/09 05:35:41;;;;;;;4.70;1.90;;;20.20;72.70;;;;;;5048818;28;20033;-68
2022/06/09 05:46:20;;;;;;;5.93;1.80;;;20.70;72.40;;;;;;5048363;28;20155;-69
2022/06/09 05:48:46;;;;;;;3.55;1.50;;;20.70;72.50;;;;;;5051844;28;20484;-68
2022/06/09 05:51:14;;;;;;;4.93;1.70;;;20.60;72.60;;;;;;5048839;28;20629;-68
2022/06/09 05:53:40;;;;;;;3.50;1.90;;;20.40;72.80;;;;;;5050515;28;20025;-68
2022/06/09 05:56:07;;;;;;;6.20;2.20;;;20.00;73.10;;;;;;5048441;28;20033;-68
2022/06/09 05:58:33;;;;;;;4.28;1.80;;;19.80;73.50;;;;;;5049622;28;20066;-68
2022/06/09 06:01:01;;;;;;;5.05;1.73;;;19.40;74.10;;;;;;5050495;28;20028;-68
2022/06/09 06:03:27;;;;;;;3.20;1.70;;;19.30;74.80;;;;;;5052235;28;20660;-68
2022/06/09 06:08:40;;;;;;;3.85;1.77;;;19.40;75.50;;;;;;5050822;28;20093;-68
2022/06/09 06:11:07;;;;;;;4.10;1.73;;;19.40;75.30;;;;;;5047315;28;20574;-68
2022/06/09 06:13:33;;;;;;;4.75;1.83;;;19.40;75.30;;;;;;5049531;28;20033;-68
2022/06/09 06:15:58;;;;;;;4.28;1.60;;;19.40;75.30;;;;;;5046707;28;20029;-68
2022/06/09 06:18:24;;;;;;;3.15;1.70;;;19.40;75.30;;;;;;5050103;28;20479;-68
2022/06/09 06:20:51;;;;;;;4.85;1.77;;;19.40;75.50;;;;;;5052927;28;20033;-68
2022/06/09 06:23:16;;;;;;;2.60;1.35;;;19.30;75.20;;;;;;5052025;28;20099;-68
2022/06/09 06:25:42;;;;;;;3.28;1.60;;;19.20;75.30;;;;;;5045793;28;20151;-68
2022/06/09 06:28:08;;;;;;;3.30;1.70;;;19.30;75.50;;;;;;5049832;28;20025;-69
2022/06/09 06:30:33;;;;;;;5.68;1.65;;;19.30;75.30;;;;;;5049834;28;20028;-69
2022/06/09 06:32:59;;;;;;;4.90;1.80;;;19.40;75.10;;;;;;5051755;28;20089;-69
2022/06/09 06:35:25;;;;;;;4.15;1.58;;;19.50;74.80;;;;;;5049934;28;20025;-69
2022/06/09 06:37:50;;;;;;;4.30;1.52;;;19.50;74.70;;;;;;5049076;28;20060;-69
2022/06/09 06:40:17;;;;;;;3.40;1.60;;;19.60;74.50;;;;;;5045717;28;20376;-69
2022/06/09 06:42:42;;;;;;;2.30;1.30;;;19.80;74.20;;;;;;5052681;28;20036;-69
2022/06/09 06:45:11;;;;;;;3.47;1.45;;;20.00;74.20;;;;;;5049014;28;20127;-69
2022/06/09 06:47:38;;;;;;;2.50;1.20;;;20.20;73.80;;;;;;5051935;28;20025;-69
2022/06/09 06:50:06;;;;;;;7.43;2.17;;;20.30;73.20;;;;;;5043878;28;20020;-70
2022/06/09 06:52:31;;;;;;;2.65;1.25;;;20.40;72.50;;;;;;5049354;28;20033;-70
2022/06/09 06:54:57;;;;;;;2.63;1.40;;;20.50;72.60;;;;;;5052429;28;20040;-70
2022/06/09 06:57:22;;;;;;;2.95;1.20;;;20.60;71.80;;;;;;5058816;28;20031;-69
2022/06/09 06:59:48;;;;;;;3.35;1.33;;;20.70;71.50;;;;;;5054567;28;20079;-69
2022/06/09 07:02:13;;;;;;;3.20;1.15;;;20.80;71.10;;;;;;5050578;28;20032;-68
2022/06/09 07:04:39;;;;;;;4.30;1.25;;;20.80;70.60;;;;;;5050810;28;20120;-68
2022/06/09 07:07:05;;;;;;;3.55;1.17;;;21.00;70.40;;;;;;5051895;28;20487;-68
2022/06/09 07:09:30;;;;;;;2.38;1.13;;;21.10;70.10;;;;;;5054381;28;20479;-68
2022/06/09 07:11:56;;;;;;;3.85;1.38;;;21.20;69.50;;;;;;5049694;28;20128;-68
2022/06/09 07:14:22;;;;;;;3.90;1.33;;;21.50;69.00;;;;;;5057571;28;20079;-69
2022/06/09 07:16:47;;;;;;;2.60;0.80;;;21.60;68.70;;;;;;5050520;28;20032;-69
2022/06/09 07:19:14;;;;;;;1.98;1.15;;;21.60;68.50;;;;;;5064589;28;20016;-69
2022/06/09 07:21:40;;;;;;;3.72;1.10;;;21.60;68.60;;;;;;5044615;28;20438;-69
2022/06/09 07:24:06;;;;;;;2.92;1.30;;;21.80;68.60;;;;;;5050054;28;20064;-69
2022/06/09 07:26:31;;;;;;;4.43;1.40;;;21.80;67.80;;;;;;5050394;28;20424;-69
2022/06/09 07:28:57;;;;;;;2.05;1.02;;;21.60;67.20;;;;;;5048494;28;20060;-69
2022/06/09 07:31:23;;;;;;;3.22;1.35;;;21.60;67.50;;;;;;5050667;28;20017;-69
2022/06/09 07:33:49;;;;;;;2.28;1.33;;;21.40;67.50;;;;;;5052820;28;20040;-69
2022/06/09 07:36:20;;;;;;;3.08;1.40;;;21.30;67.40;;;;;;5049333;28;20101;-69
2022/06/09 07:38:46;;;;;;;2.22;1.27;;;21.40;67.70;;;;;;5058068;28;20166;-69
2022/06/09 07:41:12;;;;;;;4.00;1.90;;;21.40;67.30;;;;;;5049706;28;20104;-69
2022/06/09 07:43:38;;;;;;;3.15;1.20;;;21.30;66.40;;;;;;5055815;28;20021;-69
2022/06/09 07:46:04;;;;;;;2.20;1.10;;;21.50;66.80;;;;;;5050137;28;20122;-69
2022/06/09 07:48:30;;;;;;;3.17;1.30;;;21.60;66.80;;;;;;5050090;28;20021;-69
2022/06/09 07:50:56;;;;;;;2.45;1.40;;;21.70;66.50;;;;;;5049127;28;20075;-69
2022/06/09 07:53:22;;;;;;;2.83;1.35;;;21.70;65.80;;;;;;5050632;28;20021;-69
2022/06/09 07:55:48;;;;;;;4.50;1.52;;;21.70;65.70;;;;;;5049387;28;20708;-68
2022/06/09 07:58:14;;;;;;;3.40;1.60;;;21.80;65.40;;;;;;5052483;28;20051;-69
2022/06/09 08:00:40;;;;;;;3.22;1.30;;;21.70;65.40;;;;;;5049024;28;20035;-68
2022/06/09 08:03:07;;;;;;;3.05;1.48;;;21.60;65.50;;;;;;5044176;28;20029;-68
2022/06/09 08:05:33;;;;;;;2.60;1.10;;;21.60;65.70;;;;;;5050216;28;20040;-68
2022/06/09 08:07:59;;;;;;;2.58;1.30;;;21.70;65.60;;;;;;5048431;28;20411;-68
2022/06/09 08:10:27;;;;;;;1.67;1.10;;;21.80;64.70;;;;;;5049688;28;20027;-68
2022/06/09 08:12:56;;;;;;;1.95;1.30;;;21.80;64.50;;;;;;5051210;28;20384;-68
2022/06/09 08:15:26;;;;;;;2.80;1.52;;;21.90;64.30;;;;;;5049190;28;20494;-68
2022/06/09 08:17:56;;;;;;;2.25;1.30;;;21.90;64.10;;;;;;5055626;28;20024;-68
2022/06/09 08:20:24;;;;;;;2.95;1.33;;;21.90;64.30;;;;;;5049012;28;20024;-68
2022/06/09 08:22:50;;;;;;;4.18;1.55;;;21.80;64.30;;;;;;5050775;28;20029;-68
2022/06/09 08:25:18;;;;;;;4.93;1.85;;;21.70;64.30;;;;;;5051088;28;20070;-68
2022/06/09 08:27:44;;;;;;;2.10;1.70;;;21.70;64.30;;;;;;5048448;28;20029;-68
2022/06/09 08:30:13;;;;;;;2.67;1.60;;;21.90;64.30;;;;;;5049840;28;20075;-68
2022/06/09 08:32:39;;;;;;;1.80;1.40;;;22.00;64.10;;;;;;5049578;28;20086;-68
2022/06/09 08:35:10;;;;;;;3.15;1.70;;;22.10;63.90;;;;;;5051353;28;20433;-68
2022/06/09 08:37:35;;;;;;;2.45;1.20;;;22.20;63.10;;;;;;5048435;28;20050;-68
2022/06/09 08:40:02;;;;;;;2.83;1.30;;;22.10;63.30;;;;;;5049340;28;20043;-68
2022/06/09 08:42:43;;;;;;;2.95;1.50;;;22.10;63.40;;;;;;5044143;28;20090;-68
2022/06/09 08:45:11;;;;;;;2.63;1.10;;;21.90;62.90;;;;;;5043409;28;20075;-68
2022/06/09 08:47:42;;;;;;;3.92;1.73;;;22.00;63.30;;;;;;5045704;28;20025;-68
2022/06/09 08:50:37;;;;;;;3.10;1.20;;;22.00;63.20;;;;;;5044879;28;20021;-68
2022/06/09 08:53:32;;;;;;;3.47;1.40;;;21.90;62.40;;;;;;5044754;28;20029;-68
2022/06/09 08:56:18;;;;;;;2.67;1.08;;;21.70;62.30;;;;;;5038483;28;20025;-68
2022/06/09 08:58:57;;;;;;;3.20;1.02;;;21.50;62.80;;;;;;5045744;28;20158;-68
2022/06/09 09:01:45;;;;;;;3.10;1.10;;;21.40;63.50;;;;;;5046211;28;20399;-68
2022/06/09 09:04:22;;;;;;;1.75;1.08;;;21.40;63.80;;;;;;5045001;28;20034;-68
2022/06/09 09:06:59;;;;;;;3.50;1.20;;;21.30;63.40;;;;;;5042358;28;20389;-68
2022/06/09 09:09:30;;;;;;;3.75;1.02;;;21.20;63.40;;;;;;5047534;28;20453;-68
2022/06/09 09:12:13;;;;;;;2.45;0.70;;;21.10;63.40;;;;;;5041716;28;20100;-68
2022/06/09 09:14:52;;;;;;;1.65;0.80;;;21.10;64.00;;;;;;5044371;28;20025;-68
2022/06/09 09:17:34;;;;;;;1.85;0.88;;;21.20;64.20;;;;;;5045703;28;20112;-68
2022/06/09 09:20:35;;;;;;;3.88;1.10;;;21.30;64.30;;;;;;5042154;28;20036;-68
2022/06/09 09:23:21;;;;;;;1.57;1.10;;;21.40;64.10;;;;;;5030849;28;20084;-68
2022/06/09 09:26:02;;;;;;;3.10;1.13;;;21.50;64.10;;;;;;5047764;28;20056;-68
2022/06/09 09:28:42;;;;;;;2.95;1.00;;;21.70;64.00;;;;;;5045103;28;20831;-68
2022/06/09 09:31:13;;;;;;;3.28;1.40;;;22.00;63.80;;;;;;5045043;28;20044;-68
2022/06/09 09:33:39;;;;;;;1.83;1.00;;;22.10;62.70;;;;;;5046202;28;20021;-68
2022/06/09 09:36:17;;;;;;;2.72;1.30;;;22.20;62.80;;;;;;5045756;28;20025;-68
2022/06/09 09:38:49;;;;;;;2.97;1.27;;;22.20;62.40;;;;;;5044833;28;20552;-68
2022/06/09 09:41:26;;;;;;;;;;;22.20;62.60;;;;;;5041118;28;20029;-68
2022/06/09 09:43:54;;;;;;;4.22;1.33;;;22.30;62.80;;;;;;5045507;28;19921;-68
2022/06/09 09:46:31;;;;;;;3.58;1.38;;;22.40;62.70;;;;;;5042856;28;20029;-68
2022/06/09 09:49:00;;;;;;;4.60;1.60;;;22.50;62.40;;;;;;5045681;28;20021;-68
2022/06/09 09:51:35;;;;;;;2.22;1.20;;;22.70;61.90;;;;;;5045134;28;20025;-68
2022/06/09 09:54:15;;;;;;;2.95;1.55;;;22.90;61.50;;;;;;5048323;28;20108;-68
2022/06/09 09:56:41;;;;;;;2.97;1.25;;;22.90;60.90;;;;;;5048903;28;20175;-68
2022/06/09 09:59:23;;;;;;;2.90;1.10;;;22.80;60.80;;;;;;5046674;28;20037;-68
2022/06/09 10:10:26;;;;;;;2.35;0.90;;;21.00;64.10;;;;;;5044743;28;20681;-67
2022/06/09 10:12:54;;;;;;;1.67;0.77;;;20.50;65.80;;;;;;5047655;28;20114;-68
2022/06/09 10:15:21;;;;;;;2.17;0.73;;;20.30;66.70;;;;;;5047845;28;20672;-68
2022/06/09 10:18:06;;;;;;;3.03;0.95;;;20.20;67.50;;;;;;5046185;28;20029;-68
2022/06/09 10:20:36;;;;;;;2.92;1.17;;;20.10;67.80;;;;;;5049562;28;20032;-67
2022/06/09 10:23:13;;;;;;;2.38;1.15;;;20.00;68.00;;;;;;5049731;28;20666;-67
2022/06/09 10:25:59;;;;;;;4.20;1.30;;;20.00;68.40;;;;;;5046915;28;20044;-67
2022/06/09 10:28:43;;;;;;;3.10;1.20;;;20.00;68.80;;;;;;5049499;28;20066;-68
2022/06/09 10:31:46;;;;;;;1.85;1.15;;;20.10;68.90;;;;;;5047613;28;20939;-69
2022/06/09 10:34:34;;;;;;;2.35;1.50;;;20.20;69.20;;;;;;5040922;28;20025;-68
2022/06/09 10:37:25;;;;;;;2.55;1.17;;;20.20;69.30;;;;;;5049887;28;20029;-66
2022/06/09 10:40:06;;;;;;;3.65;1.27;;;20.20;69.50;;;;;;5044118;28;20101;-67
2022/06/09 10:42:42;;;;;;;4.00;1.33;;;20.20;69.70;;;;;;5050325;28;20036;-67
2022/06/09 10:45:21;;;;;;;1.63;1.00;;;20.20;69.50;;;;;;5044498;28;20105;-67
2022/06/09 10:57:13;;;;;;;3.80;1.10;;;20.70;69.40;;;;;;5064368;28;20848;-68
2022/06/09 10:59:45;;;;;;;3.53;1.10;;;20.90;69.80;;;;;;5050206;28;20108;-67
2022/06/09 11:02:22;;;;;;;4.75;1.60;;;21.10;70.00;;;;;;5048121;28;20059;-67
2022/06/09 11:04:51;;;;;;;2.55;1.10;;;21.10;69.10;;;;;;5045409;28;20064;-67
2022/06/09 11:07:43;;;;;;;2.17;1.23;;;21.30;69.00;;;;;;5048983;28;20065;-67
2022/06/09 11:10:44;;;;;;;3.40;1.10;;;21.50;68.10;;;;;;5046103;28;20030;-67
2022/06/09 11:13:25;;;;;;;3.83;1.10;;;21.50;67.50;;;;;;5047521;28;20033;-67
2022/06/09 11:15:57;;;;;;;2.35;0.90;;;21.40;67.30;;;;;;5049091;28;20029;-67
2022/06/09 11:18:22;;;;;;;;;;;21.50;67.50;;;;;;5049552;28;20418;-67
2022/06/09 11:21:15;;;;;;;1.98;0.98;;;21.60;67.60;;;;;;5049033;28;19923;-67
2022/06/09 11:23:53;;;;;;;2.15;1.08;;;21.80;67.10;;;;;;5049285;28;20053;-67
2022/06/09 11:26:40;;;;;;;2.90;1.13;;;21.80;66.50;;;;;;5047874;28;20028;-67
2022/06/09 11:29:49;;;;;;;2.55;1.05;;;21.70;66.50;;;;;;5068360;28;20033;-68
2022/06/09 11:32:38;;;;;;;3.00;1.10;;;21.60;65.50;;;;;;5049885;28;20017;-68
2022/06/09 11:35:20;;;;;;;3.58;1.05;;;21.30;64.50;;;;;;5042705;28;20021;-69
2022/06/09 11:37:55;;;;;;;2.95;1.00;;;21.10;64.40;;;;;;5048640;28;20037;-67
2022/06/09 11:40:38;;;;;;;2.20;0.90;;;21.00;64.80;;;;;;5045937;28;20036;-67
2022/06/09 11:43:28;;;;;;;3.20;0.90;;;20.90;64.50;;;;;;5050433;28;20021;-67
2022/06/09 11:46:01;;;;;;;2.55;0.90;;;20.90;64.10;;;;;;5044146;28;20074;-67
2022/06/09 11:48:48;;;;;;;2.85;0.95;;;20.80;63.10;;;;;;5050145;28;20017;-67
2022/06/09 11:51:18;;;;;;;2.13;0.80;;;20.90;63.00;;;;;;5044561;28;20032;-67
2022/06/09 11:53:51;;;;;;;1.70;0.70;;;21.20;62.60;;;;;;5048855;28;20068;-67
2022/06/09 11:56:40;;;;;;;1.55;0.95;;;21.40;62.10;;;;;;5045955;28;20027;-67
2022/06/09 11:59:11;;;;;;;1.85;0.80;;;21.40;61.30;;;;;;5041694;28;20025;-67
2022/06/09 12:01:40;;;;;;;2.72;0.98;;;21.50;60.70;;;;;;5049883;28;20133;-67
2022/06/09 12:04:27;;;;;;;2.45;0.80;;;21.60;60.00;;;;;;5048051;28;20041;-68
2022/06/09 12:07:10;;;;;;;2.60;1.00;;;21.70;59.40;;;;;;5049037;28;20108;-68
2022/06/09 12:09:58;;;;;;;2.78;1.10;;;21.80;58.20;;;;;;5050944;28;20105;-68
2022/06/09 12:12:39;;;;;;;2.63;0.90;;;22.10;56.90;;;;;;5045573;28;20032;-67
2022/06/09 12:15:26;;;;;;;2.25;0.90;;;22.30;56.40;;;;;;5047298;28;20024;-68
2022/06/09 12:18:13;;;;;;;2.50;0.70;;;22.60;55.70;;;;;;5046819;28;20056;-68
2022/06/09 12:20:47;;;;;;;2.05;0.80;;;22.90;55.50;;;;;;5047230;28;20044;-68
2022/06/09 12:23:21;;;;;;;2.92;0.95;;;23.10;54.30;;;;;;5047574;28;20063;-67
2022/06/09 12:26:09;;;;;;;1.98;0.80;;;23.40;53.90;;;;;;5048388;28;20032;-69
2022/06/09 12:28:50;;;;;;;3.60;1.20;;;23.70;53.40;;;;;;5046977;28;20032;-69
2022/06/09 12:31:21;;;;;;;1.98;0.85;;;23.70;53.40;;;;;;5047570;28;20029;-69
2022/06/09 12:34:04;;;;;;;3.08;0.85;;;23.50;52.90;;;;;;5046388;28;20116;-69
2022/06/09 12:36:48;;;;;;;2.35;0.80;;;23.40;52.50;;;;;;5047102;28;20031;-69
2022/06/09 12:39:19;;;;;;;3.10;1.00;;;23.20;52.90;;;;;;5048427;28;20368;-68
2022/06/09 12:41:57;;;;;;;2.25;0.80;;;23.00;53.10;;;;;;5047833;28;20041;-69
2022/06/09 12:44:22;;;;;;;3.30;1.00;;;23.10;52.60;;;;;;5050609;28;20064;-67
2022/06/09 12:46:55;;;;;;;1.52;0.70;;;23.20;51.00;;;;;;5046503;28;20052;-67
2022/06/09 12:49:31;;;;;;;2.85;0.90;;;23.20;51.00;;;;;;5049232;28;20040;-68
2022/06/09 12:51:57;;;;;;;3.15;1.17;;;23.30;50.90;;;;;;5049142;28;20021;-68
2022/06/09 12:54:35;;;;;;;1.92;0.68;;;23.30;49.40;;;;;;5047974;28;20708;-67
2022/06/09 12:57:12;;;;;;;2.10;0.80;;;23.40;49.10;;;;;;5045378;28;20113;-67
2022/06/09 12:59:40;;;;;;;5.03;1.40;;;23.60;48.80;;;;;;5044353;28;20025;-67
2022/06/09 13:02:26;;;;;;;2.83;1.25;;;23.80;47.20;;;;;;5053248;28;20079;-66
2022/06/09 13:05:02;;;;;;;4.10;0.98;;;23.90;47.80;;;;;;5051895;28;20074;-67
2022/06/09 13:07:32;;;;;;;3.35;1.35;;;24.10;47.50;;;;;;5048990;28;20099;-67
2022/06/09 13:10:00;;;;;;;2.90;0.98;;;24.40;47.60;;;;;;5038709;28;20047;-67
2022/06/09 13:15:43;;;;;;;5.13;1.40;;;24.70;47.30;;;;;;5047571;28;20134;-67
2022/06/09 13:18:11;;;;;;;3.25;1.08;;;24.60;46.90;;;;;;5037967;28;20076;-67
2022/06/09 13:20:48;;;;;;;2.47;1.00;;;24.30;47.30;;;;;;5047895;28;20032;-67
2022/06/09 13:23:14;;;;;;;5.03;1.00;;;24.10;47.80;;;;;;5046296;28;20025;-67
2022/06/09 13:25:42;;;;;;;3.78;1.30;;;24.00;48.10;;;;;;5045938;28;20021;-67
2022/06/09 13:28:28;;;;;;;2.80;1.05;;;24.00;48.30;;;;;;5050830;28;20059;-67
2022/06/09 13:30:54;;;;;;;3.05;0.90;;;23.80;47.80;;;;;;5051041;28;20116;-67
2022/06/09 13:33:42;;;;;;;2.55;0.80;;;23.60;48.00;;;;;;5052173;28;20112;-67
2022/06/09 13:36:42;;;;;;;2.80;1.00;;;23.40;48.60;;;;;;5051027;28;20036;-67
2022/06/09 13:39:27;;;;;;;2.97;0.80;;;23.40;49.10;;;;;;5034865;28;20084;-67
2022/06/09 13:42:01;;;;;;;3.10;0.95;;;23.40;49.40;;;;;;5048019;28;20033;-67
2022/06/09 13:44:32;;;;;;;5.10;1.10;;;23.30;49.20;;;;;;5065063;28;20483;-67